Flight Track Log - Related Links

Times and Time Zones

All times are in EDT time to prevent confusion due to time zone crossing. See the EJA951 flight status page for this flight to view local times or setup timezone preferences in your user account.

Time Position Orientation Groundspeed Altitude Reporting Facility
EDT Latitude Longitude Course Direction KTS MPH feet Rate Location/Type
Mon 10:24:17 AM 27.1675 -80.1783 127° Southeast 193 222 1,900  Level Miami Center
Mon 10:25:18 AM 27.1364 -80.1311 127° Southeast 203 234 3,000 585 Climbing Miami Center
Mon 10:26:20 AM 27.1247 -80.1875 257° West 197 227 3,100 581 Climbing Miami Center
Mon 10:27:22 AM 27.1294 -80.2450 275° West 197 227 4,200 1,597 Climbing Miami Center
Mon 10:28:24 AM 27.1836 -80.3017 317° Northwest 273 314 6,400 2,419 Climbing Miami Center
Mon 10:29:26 AM 27.2311 -80.3700 308° West 271 312 9,200 2,323 Climbing Miami Center
Mon 10:30:28 AM 27.2633 -80.4603 292° West 298 343 11,200 1,694 Climbing Miami Center
Mon 10:31:30 AM 27.3106 -80.5564 299° West 338 389 12,700 1,463 Climbing Miami Center
Mon 10:32:31 AM 27.3975 -80.6136 330° Northwest 372 428 14,200 1,512 Climbing Miami Center
Mon 10:33:33 AM 27.4958 -80.6744 331° Northwest 382 440 15,800 1,500 Climbing Miami Center
Mon 10:34:35 AM 27.5942 -80.7344 332° Northwest 394 453 17,300 1,161 Climbing Miami Center
Mon 10:35:37 AM 27.6769 -80.7872 331° Northwest 395 455 18,200 823 Climbing Miami Center
Mon 10:36:39 AM 27.7958 -80.8614 331° Northwest 406 467 19,000 387 Climbing Miami Center
Mon 10:37:41 AM 27.8950 -80.9239 331° Northwest 411 473 19,000 -49 Level Miami Center
Mon 10:38:42 AM 27.9903 -80.9836 331° Northwest 395 455 18,900  Descending Miami Center
Mon 10:39:44 AM 28.0847 -81.0439 331° Northwest 392 451 19,000 48 Climbing Miami Center
Mon 10:40:46 AM 28.1950 -81.1142 331° Northwest 402 463 19,000 -145 Level Miami Center
Mon 10:41:48 AM 28.2986 -81.1797 331° Northwest 403 464 18,700 -703 Descending Miami Center
Mon 10:42:54 AM 28.4022 -81.2478 330° Northwest 416 479 17,500 -810 Descending Jacksonville Center
Mon 10:43:54 AM 28.5097 -81.3144 331° Northwest 428 493 17,000 -250 Descending Jacksonville Center
Mon 10:44:54 AM 28.6189 -81.3767 333° Northwest 428 493 17,000  Level Jacksonville Center
Mon 10:45:54 AM 28.7300 -81.4175 342° North 428 493 17,000  Level Jacksonville Center
Mon 10:46:54 AM 28.8450 -81.4300 355° North 420 483 17,000  Level Jacksonville Center
Mon 10:47:54 AM 28.9572 -81.4069 10° North 408 470 17,000  Level Jacksonville Center
Mon 10:48:54 AM 29.0544 -81.3294 35° Northeast 399 459 17,000 -200 Level Jacksonville Center
Mon 10:49:54 AM 29.1631 -81.3303 360° North 384 442 16,600 -950 Descending Jacksonville Center
Mon 10:50:54 AM 29.2697 -81.3594 347° North 389 448 15,100 -1,050 Descending Jacksonville Center
Mon 10:51:54 AM 29.3847 -81.3553 North 389 448 14,500 -550 Descending Jacksonville Center
Mon 10:52:54 AM 29.5075 -81.3367 North 401 461 14,000 -250 Descending Jacksonville Center
Mon 10:53:30 AM 29.5806 -81.3236 North 410 472 14,100 -200 Climbing Jacksonville Center
Mon 10:53:54 AM 29.6222 -81.3158 North 406 467 13,800 -835 Descending Jacksonville Center
Mon 10:54:49 AM 29.7203 -81.3119 North 379 436 13,000 -800 Descending Jacksonville Center
Mon 10:54:54 AM 29.7286 -81.3164 335° Northwest 406 467 13,000 98 Level Jacksonville Center
Mon 10:55:50 AM 29.8167 -81.3606 336° Northwest 369 425 13,100  Climbing Jacksonville Center
Mon 10:55:54 AM 29.8231 -81.3628 343° North 375 432 13,000 -197 Descending Jacksonville Center
Mon 10:56:51 AM 29.9175 -81.4044 339° North 363 418 12,900 -200 Descending Jacksonville Center
Mon 10:56:54 AM 29.9175 -81.4069 270° West 369 425 12,800 -1,377 Descending Jacksonville Center
Mon 10:57:52 AM 29.9975 -81.4511 334° Northwest 315 362 11,500 -1,400 Descending Jacksonville Center
Mon 10:57:54 AM 29.9994 -81.4511 360° North 346 398 11,400 -1,770 Descending Jacksonville Center
Mon 10:58:53 AM 30.0689 -81.4956 331° Northwest 298 343 9,700 -1,800 Descending Jacksonville Center
Mon 10:58:54 AM 30.0731 -81.4981 333° Northwest 317 365 9,600 -1,869 Descending Jacksonville Center
Mon 10:59:54 AM 30.1406 -81.5522 325° Northwest 302 348 7,800 -1,792 Descending Jacksonville Center
Mon 11:00:11 AM 30.1617 -81.5714 322° Northwest 293 337 7,300 -1,700 Descending Jacksonville Center
Mon 11:00:54 AM 30.2058 -81.6042 327° Northwest 292 336 6,100 -1,475 Descending Jacksonville Center
Mon 11:01:12 AM 30.2186 -81.6281 302° West 261 300 5,800 -800 Descending Jacksonville Center
Mon 11:01:54 AM 30.2336 -81.6736 291° West 258 297 5,300 -716 Descending Jacksonville Center
Mon 11:02:19 AM 30.2422 -81.7025 289° West 217 250 5,000 -1,100 Descending Jacksonville Center
Mon 11:02:54 AM 30.2572 -81.7406 295° West 223 257 4,200 -1,256 Descending Jacksonville Center
Mon 11:03:02 AM 30.2572 -81.7503 270° West 220 253 4,100 -882 Descending Jacksonville Center
Mon 11:04:02 AM 30.2953 -81.8075 308° West 217 250 3,200 -414 Descending Jacksonville Center
Mon 11:05:27 AM 30.3667 -81.8525 331° Northwest 220 253 3,100 -214 Descending Jacksonville Center
Mon 11:06:22 AM 30.4211 -81.8592 354° North 208 239 2,700 -491 Descending Jacksonville Center
Mon 11:07:17 AM 30.4561 -81.8225 42° Northeast 231 266 2,200 -699 Descending Jacksonville Center
Mon 11:08:05 AM 30.4725 -81.7767 67° East 168 193 1,500 -881 Descending Jacksonville Center
Mon 11:09:06 AM 30.4867 -81.7258 72° East 155 178 600 -885 Descending Jacksonville Center
Mon 11:11:00 AM 30.4833 -81.6833 14° North  Level FlightAware Approximate
Mon 11:18:00 AM 30.4941 -81.6878 14° North  Level Estimated

Login

Don't have an account? Register now (free) for customized features, flight alerts, and more!